createdAt,value
2018-04-08T00:00:16.155Z,100343.35
2018-04-08T00:02:43.754Z,100353.77
2018-04-08T00:05:11.391Z,100347.30
2018-04-08T00:07:39.004Z,100344.80
2018-04-08T00:10:06.655Z,100339.26
2018-04-08T00:12:34.275Z,100338.05
2018-04-08T00:15:01.871Z,100343.64
2018-04-08T00:17:29.577Z,100348.91
2018-04-08T00:19:57.187Z,100348.35
2018-04-08T00:22:24.834Z,100345.52
2018-04-08T00:24:52.487Z,100339.36
2018-04-08T00:27:20.094Z,100331.17
2018-04-08T00:29:47.683Z,100336.70
2018-04-08T00:32:15.311Z,100328.30
2018-04-08T00:34:42.935Z,100330.25
2018-04-08T00:37:10.535Z,100336.37
2018-04-08T00:39:38.179Z,100335.16
2018-04-08T00:42:05.786Z,100339.00
2018-04-08T00:44:33.399Z,100335.02
2018-04-08T00:47:01.127Z,100326.10
2018-04-08T00:49:28.821Z,100328.20
2018-04-08T00:51:56.419Z,100325.62
2018-04-08T00:54:30.838Z,100329.72
2018-04-08T00:56:58.454Z,100327.36
2018-04-08T00:59:26.098Z,100328.72
2018-04-08T01:01:53.826Z,100332.30
2018-04-08T01:04:21.430Z,100326.15
2018-04-08T01:06:49.022Z,100329.78
2018-04-08T01:09:16.730Z,100327.73
2018-04-08T01:11:44.343Z,100321.74
2018-04-08T01:14:11.951Z,100326.25
2018-04-08T01:16:39.574Z,100328.99
2018-04-08T01:19:07.206Z,100330.04
2018-04-08T01:21:34.876Z,100335.27
2018-04-08T01:24:02.471Z,100326.09
2018-04-08T01:26:30.073Z,100329.41
2018-04-08T01:28:57.755Z,100325.86
2018-04-08T01:31:25.351Z,100327.48
2018-04-08T01:33:52.946Z,100330.11
2018-04-08T01:36:20.606Z,100331.27
2018-04-08T01:38:48.234Z,100327.78
2018-04-08T01:41:15.842Z,100333.64
2018-04-08T01:43:43.470Z,100331.27
2018-04-08T01:46:11.050Z,100322.92
2018-04-08T01:48:38.639Z,100324.44
2018-04-08T01:51:06.238Z,100327.58
2018-04-08T01:53:33.827Z,100328.31
2018-04-08T01:56:01.534Z,100326.74
2018-04-08T01:58:29.132Z,100321.56
2018-04-08T02:00:56.722Z,100324.74
2018-04-08T02:03:24.335Z,100322.14
2018-04-08T02:05:51.946Z,100322.77
2018-04-08T02:08:19.545Z,100321.44
2018-04-08T02:10:47.147Z,100325.34
2018-04-08T02:13:14.743Z,100318.77
2018-04-08T02:15:42.338Z,100321.92
2018-04-08T02:18:09.942Z,100326.90
2018-04-08T02:20:37.546Z,100320.55
2018-04-08T02:23:05.154Z,100317.02
2018-04-08T02:25:32.742Z,100323.79
2018-04-08T02:28:00.350Z,100324.72
2018-04-08T02:30:31.139Z,100318.47
2018-04-08T02:32:58.763Z,100327.27
2018-04-08T02:35:26.366Z,100320.69
2018-04-08T02:37:53.960Z,100320.08
2018-04-08T02:40:21.579Z,100323.12
2018-04-08T02:42:49.180Z,100320.33
2018-04-08T02:45:16.780Z,100328.22
2018-04-08T02:47:44.391Z,100328.58
2018-04-08T02:50:11.999Z,100327.23
2018-04-08T02:52:39.699Z,100333.33
2018-04-08T02:55:07.327Z,100331.87
2018-04-08T02:57:34.960Z,100330.22
2018-04-08T03:00:02.635Z,100333.78
2018-04-08T03:02:30.223Z,100330.80
2018-04-08T03:04:57.822Z,100332.70
2018-04-08T03:07:25.404Z,100327.50
2018-04-08T03:09:53.007Z,100326.13
2018-04-08T03:12:20.648Z,100322.22
2018-04-08T03:14:48.236Z,100332.11
2018-04-08T03:17:15.859Z,100323.40
2018-04-08T03:19:43.475Z,100326.67
2018-04-08T03:22:11.103Z,100327.53
2018-04-08T03:24:38.707Z,100340.06
2018-04-08T03:27:06.322Z,100338.56
2018-04-08T03:29:33.962Z,100342.66
2018-04-08T03:32:01.558Z,100344.30
2018-04-08T03:34:29.160Z,100346.80
2018-04-08T03:36:56.839Z,100352.37
2018-04-08T03:39:24.426Z,100360.20
2018-04-08T03:41:52.019Z,100363.05
2018-04-08T03:44:19.642Z,100367.86
2018-04-08T03:46:47.242Z,100372.91
2018-04-08T03:49:14.826Z,100381.27
2018-04-08T03:51:42.506Z,100380.50
2018-04-08T03:54:10.183Z,100381.94
2018-04-08T03:56:37.820Z,100386.39
2018-04-08T03:59:05.475Z,100385.93
2018-04-08T04:01:33.167Z,100385.47
2018-04-08T04:04:00.775Z,100384.62
2018-04-08T04:06:28.398Z,100384.75
2018-04-08T04:08:55.994Z,100383.05
2018-04-08T04:11:23.636Z,100392.13
2018-04-08T04:13:51.262Z,100391.02
2018-04-08T04:16:18.889Z,100387.87
2018-04-08T04:18:58.322Z,100390.75
2018-04-08T04:21:37.662Z,100391.17
2018-04-08T04:24:17.038Z,100395.17
2018-04-08T04:26:44.663Z,100398.41
2018-04-08T04:29:12.296Z,100400.14
2018-04-08T04:31:39.977Z,100400.09
2018-04-08T04:34:07.578Z,100400.49
2018-04-08T04:36:35.251Z,100404.70
2018-04-08T04:39:02.891Z,100400.67
2018-04-08T04:41:30.494Z,100402.70
2018-04-08T04:43:58.110Z,100406.97
2018-04-08T04:46:25.706Z,100408.52
2018-04-08T04:48:53.310Z,100414.04
2018-04-08T04:51:20.914Z,100410.80
2018-04-08T04:53:48.543Z,100413.02
2018-04-08T04:56:16.263Z,100409.80
2018-04-08T04:58:43.862Z,100403.37
2018-04-08T05:01:11.492Z,100398.61
2018-04-08T05:03:39.133Z,100399.61
2018-04-08T05:06:06.788Z,100401.05
2018-04-08T05:08:34.430Z,100399.03
2018-04-08T05:11:02.058Z,100399.16
2018-04-08T05:13:29.811Z,100396.68
2018-04-08T05:15:57.451Z,100397.89
2018-04-08T05:18:25.055Z,100391.74
2018-04-08T05:20:52.647Z,100387.23
2018-04-08T05:23:20.295Z,100393.80
2018-04-08T05:25:47.937Z,100393.36
2018-04-08T05:28:15.510Z,100395.48
2018-04-08T05:30:43.112Z,100404.41
2018-04-08T05:33:10.740Z,100404.91
2018-04-08T05:35:38.331Z,100404.19
2018-04-08T05:38:05.970Z,100405.83
2018-04-08T05:40:33.606Z,100408.80
2018-04-08T05:43:01.214Z,100412.34
2018-04-08T05:45:28.834Z,100411.24
2018-04-08T05:47:56.467Z,100418.89
2018-04-08T05:50:24.072Z,100418.84
2018-04-08T05:52:51.719Z,100421.81
2018-04-08T05:55:19.343Z,100419.61
2018-04-08T05:57:46.966Z,100419.73
2018-04-08T06:00:14.571Z,100418.95
2018-04-08T06:02:42.211Z,100415.18
2018-04-08T06:05:09.807Z,100419.83
2018-04-08T06:07:37.408Z,100418.46
2018-04-08T06:10:05.056Z,100421.08
2018-04-08T06:12:32.671Z,100436.09
2018-04-08T06:15:00.314Z,100424.89
2018-04-08T06:17:27.930Z,100431.01
2018-04-08T06:19:55.551Z,100431.73
2018-04-08T06:22:23.151Z,100420.34
2018-04-08T06:24:50.855Z,100421.83
2018-04-08T06:27:18.475Z,100418.23
2018-04-08T06:29:46.064Z,100421.08
2018-04-08T06:32:13.763Z,100421.41
2018-04-08T06:34:41.410Z,100418.78
2018-04-08T06:37:09.075Z,100417.36
2018-04-08T06:39:36.716Z,100418.98
2018-04-08T06:42:04.398Z,100416.51
2018-04-08T06:44:32.062Z,100422.17
2018-04-08T06:46:59.684Z,100425.67
2018-04-08T06:49:27.308Z,100426.97
2018-04-08T06:51:54.936Z,100422.06
2018-04-08T06:54:22.524Z,100416.02
2018-04-08T06:56:50.171Z,100418.42
2018-04-08T06:59:17.802Z,100419.21
2018-04-08T07:01:45.407Z,100409.56
2018-04-08T07:04:13.070Z,100415.45
2018-04-08T07:06:40.659Z,100416.61
2018-04-08T07:09:08.282Z,100422.95
2018-04-08T07:11:35.942Z,100423.03
2018-04-08T07:14:03.711Z,100426.97
2018-04-08T07:16:31.314Z,100422.23
2018-04-08T07:18:58.938Z,100413.64
2018-04-08T07:21:26.539Z,100412.75
2018-04-08T07:23:55.711Z,100410.14
2018-04-08T07:26:23.299Z,100407.81
2018-04-08T07:28:50.887Z,100407.22
2018-04-08T07:31:18.567Z,100412.03
2018-04-08T07:33:46.190Z,100406.00
2018-04-08T07:36:13.784Z,100403.48
2018-04-08T07:38:41.467Z,100404.33
2018-04-08T07:41:09.064Z,100401.96
2018-04-08T07:43:36.655Z,100404.23
2018-04-08T07:46:04.327Z,100405.73
2018-04-08T07:48:31.928Z,100401.22
2018-04-08T07:50:59.690Z,100403.14
2018-04-08T07:53:27.375Z,100407.80
2018-04-08T07:55:55.058Z,100412.49
2018-04-08T07:58:22.655Z,100411.52
2018-04-08T08:00:50.312Z,100409.28
2018-04-08T08:03:17.999Z,100414.52
2018-04-08T08:05:45.676Z,100410.50
2018-04-08T08:08:13.318Z,100412.55
2018-04-08T08:10:41.023Z,100409.97
2018-04-08T08:13:08.631Z,100404.71
2018-04-08T08:15:36.288Z,100403.73
2018-04-08T08:18:03.963Z,100397.03
2018-04-08T08:20:31.709Z,100395.70
2018-04-08T08:22:59.389Z,100399.73
2018-04-08T08:25:26.991Z,100401.70
2018-04-08T08:27:54.575Z,100401.53
2018-04-08T08:30:22.186Z,100400.73
2018-04-08T08:32:49.830Z,100392.49
2018-04-08T08:35:17.410Z,100393.52
2018-04-08T08:37:44.992Z,100396.42
2018-04-08T08:40:12.619Z,100383.41
2018-04-08T08:42:40.207Z,100397.98
2018-04-08T08:45:07.821Z,100388.67
2018-04-08T08:47:35.446Z,100376.14
2018-04-08T08:50:03.043Z,100375.91
2018-04-08T08:52:30.623Z,100378.92
2018-04-08T08:54:58.236Z,100368.15
2018-04-08T08:57:25.823Z,100369.24
2018-04-08T08:59:53.440Z,100365.66
2018-04-08T09:02:21.038Z,100362.37
2018-04-08T09:04:48.679Z,100357.22
2018-04-08T09:07:16.337Z,100355.30
2018-04-08T09:09:43.940Z,100356.04
2018-04-08T09:12:11.591Z,100358.34
2018-04-08T09:14:39.264Z,100354.78
2018-04-08T09:17:06.911Z,100346.34
2018-04-08T09:19:49.448Z,100339.95
2018-04-08T09:22:17.118Z,100348.03
2018-04-08T09:27:45.039Z,100343.64
2018-04-08T09:30:12.679Z,100341.92
2018-04-08T09:32:40.383Z,100336.31
2018-04-08T09:35:08.091Z,100339.46
2018-04-08T09:37:35.724Z,100338.05
2018-04-08T09:40:03.398Z,100343.05
2018-04-08T09:42:31.057Z,100339.81
2018-04-08T09:44:58.804Z,100337.72
2018-04-08T09:47:26.476Z,100336.89
2018-04-08T09:49:54.132Z,100339.26
2018-04-08T09:52:21.735Z,100332.66
2018-04-08T09:54:49.426Z,100332.95
2018-04-08T09:57:17.085Z,100331.97
2018-04-08T09:59:44.726Z,100333.38
2018-04-08T10:05:20.174Z,100324.97
2018-04-08T10:07:47.842Z,100330.99
2018-04-08T10:10:15.427Z,100325.81
2018-04-08T10:12:43.115Z,100322.85
2018-04-08T10:15:10.710Z,100314.42
2018-04-08T10:17:38.309Z,100309.82
2018-04-08T10:20:05.910Z,100317.08
2018-04-08T10:22:33.612Z,100317.42
2018-04-08T10:25:01.227Z,100310.42
2018-04-08T10:27:28.828Z,100313.09
2018-04-08T10:29:56.446Z,100317.57
2018-04-08T10:32:24.034Z,100311.62
2018-04-08T10:34:51.611Z,100308.50
2018-04-08T10:37:19.247Z,100310.20
2018-04-08T10:39:46.844Z,100307.38
2018-04-08T10:42:14.444Z,100306.94
2018-04-08T10:44:42.151Z,100293.55
2018-04-08T10:47:09.728Z,100294.19
2018-04-08T10:49:37.336Z,100293.41
2018-04-08T10:52:05.018Z,100295.84
2018-04-08T10:54:32.603Z,100289.88
2018-04-08T10:57:00.243Z,100293.22
2018-04-08T10:59:27.836Z,100301.03
2018-04-08T11:01:55.455Z,100285.20
2018-04-08T11:04:23.074Z,100283.11
2018-04-08T11:06:50.679Z,100282.67
2018-04-08T11:09:18.302Z,100283.31
2018-04-08T11:11:45.918Z,100272.78
2018-04-08T11:14:13.527Z,100272.34
2018-04-08T11:16:41.125Z,100263.83
2018-04-08T11:19:08.716Z,100262.52
2018-04-08T11:21:36.306Z,100264.66
2018-04-08T11:24:03.887Z,100259.05
2018-04-08T11:26:31.508Z,100260.38
2018-04-08T11:28:59.167Z,100260.55
2018-04-08T11:31:26.763Z,100259.25
2018-04-08T11:33:54.358Z,100254.22
2018-04-08T11:36:22.043Z,100250.21
2018-04-08T11:38:49.626Z,100243.02
2018-04-08T11:41:17.210Z,100237.74
2018-04-08T11:43:44.793Z,100236.58
2018-04-08T11:46:12.411Z,100247.61
2018-04-08T11:48:40.002Z,100233.42
2018-04-08T11:51:07.601Z,100230.36
2018-04-08T11:53:35.219Z,100232.53
2018-04-08T11:56:02.804Z,100232.64
2018-04-08T11:58:30.423Z,100222.41
2018-04-08T12:00:58.054Z,100219.36
2018-04-08T12:03:25.722Z,100217.48
2018-04-08T12:05:53.307Z,100211.81
2018-04-08T12:08:20.951Z,100216.02
2018-04-08T12:10:48.912Z,100216.75
2018-04-08T12:13:16.992Z,100212.78
2018-04-08T12:15:44.587Z,100212.06
2018-04-08T12:18:12.183Z,100196.00
2018-04-08T12:20:39.823Z,100191.16
2018-04-08T12:23:07.523Z,100191.16
2018-04-08T12:25:35.147Z,100192.66
2018-04-08T12:28:02.771Z,100194.84
2018-04-08T12:30:30.402Z,100183.75
2018-04-08T12:32:58.075Z,100172.50
2018-04-08T12:35:25.667Z,100176.63
2018-04-08T12:37:53.262Z,100174.07
2018-04-08T12:40:20.895Z,100175.50
2018-04-08T12:42:48.494Z,100161.50
2018-04-08T12:45:16.122Z,100156.38
2018-04-08T12:47:43.774Z,100157.98
2018-04-08T12:50:11.382Z,100155.55
2018-04-08T12:52:38.978Z,100152.83
2018-04-08T12:55:06.667Z,100150.98
2018-04-08T12:57:34.270Z,100148.47
2018-04-08T13:00:01.857Z,100143.78
2018-04-08T13:02:29.515Z,100138.95
2018-04-08T13:04:57.134Z,100148.80
2018-04-08T13:07:24.741Z,100138.18
2018-04-08T13:09:52.350Z,100133.36
2018-04-08T13:12:20.024Z,100139.61
2018-04-08T13:14:47.647Z,100134.19
2018-04-08T13:17:15.226Z,100131.80
2018-04-08T13:19:42.844Z,100128.58
2018-04-08T13:22:10.451Z,100122.61
2018-04-08T13:24:38.032Z,100124.80
2018-04-08T13:27:05.738Z,100119.92
2018-04-08T13:29:33.326Z,100123.24
2018-04-08T13:32:00.919Z,100117.11
2018-04-08T13:34:28.543Z,100114.97
2018-04-08T13:36:56.164Z,100108.84
2018-04-08T13:39:23.835Z,100105.99
2018-04-08T13:41:51.418Z,100102.59
2018-04-08T13:44:19.011Z,100096.92
2018-04-08T13:46:46.651Z,100101.52
2018-04-08T13:49:14.238Z,100107.84
2018-04-08T13:51:41.835Z,100100.00
2018-04-08T13:54:09.443Z,100094.05
2018-04-08T13:56:37.041Z,100085.98
2018-04-08T13:59:04.673Z,100096.53
2018-04-08T14:01:32.416Z,100090.81
2018-04-08T14:03:59.982Z,100087.58
2018-04-08T14:06:27.619Z,100083.83
2018-04-08T14:08:55.243Z,100080.28
2018-04-08T14:11:22.850Z,100084.10
2018-04-08T14:13:50.568Z,100073.23
2018-04-08T14:16:18.171Z,100084.39
2018-04-08T14:18:45.800Z,100085.73
2018-04-08T14:21:13.384Z,100088.70
2018-04-08T14:23:40.962Z,100088.94
2018-04-08T14:26:08.595Z,100086.41
2018-04-08T14:28:36.186Z,100084.58
2018-04-08T14:31:03.834Z,100082.22
2018-04-08T14:33:32.250Z,100075.44
2018-04-08T14:35:59.876Z,100089.79
2018-04-08T14:38:27.499Z,100089.81
2018-04-08T14:40:55.233Z,100099.00
2018-04-08T14:43:22.791Z,100091.59
2018-04-08T14:45:50.415Z,100090.30
2018-04-08T14:48:18.059Z,100092.11
2018-04-08T14:50:45.695Z,100087.92
2018-04-08T14:53:13.328Z,100093.41
2018-04-08T14:55:40.916Z,100086.71
2018-04-08T14:58:08.555Z,100089.28
2018-04-08T15:00:36.179Z,100088.53
2018-04-08T15:03:03.788Z,100082.61
2018-04-08T15:05:31.411Z,100083.05
2018-04-08T15:07:59.127Z,100082.06
2018-04-08T15:10:26.743Z,100072.83
2018-04-08T15:12:54.364Z,100074.19
2018-04-08T15:15:22.051Z,100074.56
2018-04-08T15:17:49.680Z,100075.82
2018-04-08T15:20:17.314Z,100077.08
2018-04-08T15:22:44.947Z,100083.94
2018-04-08T15:25:12.532Z,100076.88
2018-04-08T15:27:40.159Z,100079.02
2018-04-08T15:30:07.774Z,100074.83
2018-04-08T15:32:35.414Z,100073.36
2018-04-08T15:35:03.047Z,100072.15
2018-04-08T15:37:30.690Z,100065.77
2018-04-08T15:39:58.280Z,100072.82
2018-04-08T15:42:25.924Z,100072.19
2018-04-08T15:44:53.542Z,100076.48
2018-04-08T15:47:21.128Z,100083.48
2018-04-08T15:49:48.720Z,100076.27
2018-04-08T15:52:16.379Z,100077.17
2018-04-08T15:54:43.962Z,100072.73
2018-04-08T15:57:11.635Z,100073.98
2018-04-08T15:59:39.314Z,100075.42
2018-04-08T16:02:06.934Z,100066.66
2018-04-08T16:04:34.523Z,100071.45
2018-04-08T16:07:02.182Z,100070.09
2018-04-08T16:09:29.843Z,100069.83
2018-04-08T16:11:57.440Z,100075.95
2018-04-08T16:14:25.074Z,100074.08
2018-04-08T16:16:52.723Z,100071.23
2018-04-08T16:19:20.307Z,100075.08
2018-04-08T16:21:47.931Z,100077.81
2018-04-08T16:24:15.527Z,100076.42
2018-04-08T16:26:43.135Z,100081.58
2018-04-08T16:29:10.763Z,100077.17
2018-04-08T16:31:38.373Z,100071.81
2018-04-08T16:34:05.995Z,100075.25
2018-04-08T16:36:33.703Z,100073.34
2018-04-08T16:39:01.291Z,100068.64
2018-04-08T16:41:28.910Z,100066.59
2018-04-08T16:43:56.510Z,100071.95
2018-04-08T16:46:24.095Z,100072.08
2018-04-08T16:48:51.751Z,100080.83
2018-04-08T16:51:20.010Z,100072.94
2018-04-08T16:53:47.635Z,100074.84
2018-04-08T16:56:15.330Z,100084.63
2018-04-08T16:58:42.947Z,100078.94
2018-04-08T17:01:10.591Z,100087.51
2018-04-08T17:03:50.929Z,100089.86
2018-04-08T17:06:22.088Z,100090.24
2018-04-08T17:08:51.665Z,100093.96
2018-04-08T17:11:19.295Z,100100.48
2018-04-08T17:13:46.969Z,100100.36
2018-04-08T17:16:16.721Z,100099.55
2018-04-08T17:18:45.282Z,100103.98
2018-04-08T17:21:12.935Z,100107.52
2018-04-08T17:23:40.595Z,100111.56
2018-04-08T17:26:08.215Z,100122.38
2018-04-08T17:28:35.888Z,100118.45
2018-04-08T17:31:03.460Z,100122.05
2018-04-08T17:33:31.134Z,100134.91
2018-04-08T17:35:58.722Z,100150.53
2018-04-08T17:38:26.354Z,100159.20
2018-04-08T17:40:54.008Z,100157.64
2018-04-08T17:43:21.643Z,100161.24
2018-04-08T17:45:49.254Z,100166.83
2018-04-08T17:48:16.902Z,100167.69
2018-04-08T17:50:44.590Z,100171.69
2018-04-08T17:53:12.221Z,100171.92
2018-04-08T17:55:39.832Z,100176.88
2018-04-08T17:58:07.428Z,100191.69
2018-04-08T18:00:35.058Z,100186.64
2018-04-08T18:03:02.715Z,100191.64
2018-04-08T18:05:32.095Z,100188.45
2018-04-08T18:07:59.695Z,100195.08
2018-04-08T18:10:27.344Z,100199.81
2018-04-08T18:12:54.940Z,100199.82
2018-04-08T18:15:22.610Z,100201.25
2018-04-08T18:17:50.194Z,100207.64
2018-04-08T18:20:17.824Z,100209.39
2018-04-08T18:22:45.427Z,100204.61
2018-04-08T18:25:13.059Z,100207.17
2018-04-08T18:27:40.739Z,100203.16
2018-04-08T18:30:08.335Z,100209.06
2018-04-08T18:32:35.919Z,100213.25
2018-04-08T18:35:03.511Z,100212.58
2018-04-08T18:37:31.211Z,100211.81
2018-04-08T18:39:58.838Z,100216.61
2018-04-08T18:42:26.451Z,100217.47
2018-04-08T18:44:54.072Z,100230.76
2018-04-08T18:47:21.675Z,100232.97
2018-04-08T18:49:49.302Z,100237.63
2018-04-08T18:52:16.917Z,100248.77
2018-04-08T18:54:44.543Z,100241.86
2018-04-08T18:57:12.151Z,100243.81
2018-04-08T18:59:39.848Z,100250.92
2018-04-08T19:02:07.474Z,100250.42
2018-04-08T19:04:35.115Z,100256.90
2018-04-08T19:07:02.727Z,100261.19
2018-04-08T19:09:30.318Z,100259.55
2018-04-08T19:11:57.943Z,100252.45
2018-04-08T19:14:25.576Z,100257.67
2018-04-08T19:16:53.206Z,100262.49
2018-04-08T19:19:20.914Z,100255.38
2018-04-08T19:21:48.499Z,100264.94
2018-04-08T19:24:16.086Z,100266.48
2018-04-08T19:26:43.687Z,100267.31
2018-04-08T19:29:11.315Z,100264.64
2018-04-08T19:31:38.905Z,100267.05
2018-04-08T19:34:06.541Z,100268.52
2018-04-08T19:36:34.190Z,100270.94
2018-04-08T19:39:01.812Z,100268.76
2018-04-08T19:41:29.395Z,100263.38
2018-04-08T19:43:57.028Z,100274.35
2018-04-08T19:46:24.671Z,100271.96
2018-04-08T19:48:52.258Z,100273.63
2018-04-08T19:51:19.907Z,100267.67
2018-04-08T19:53:47.503Z,100270.17
2018-04-08T19:56:15.091Z,100264.95
2018-04-08T19:58:42.748Z,100267.55
2018-04-08T20:01:10.347Z,100276.08
2018-04-08T20:03:37.975Z,100273.64
2018-04-08T20:06:05.583Z,100270.13
2018-04-08T20:08:33.198Z,100270.80
2018-04-08T20:11:00.782Z,100262.92
2018-04-08T20:13:28.382Z,100268.11
2018-04-08T20:15:55.970Z,100265.85
2018-04-08T20:18:23.558Z,100266.35
2018-04-08T20:20:51.150Z,100267.77
2018-04-08T20:23:18.760Z,100259.97
2018-04-08T20:25:46.448Z,100259.04
2018-04-08T20:28:14.050Z,100255.21
2018-04-08T20:30:41.644Z,100248.86
2018-04-08T20:33:09.267Z,100248.23
2018-04-08T20:35:36.870Z,100252.25
2018-04-08T20:38:04.463Z,100251.52
2018-04-08T20:40:32.106Z,100251.84
2018-04-08T20:42:59.701Z,100255.80
2018-04-08T20:45:27.290Z,100253.55
2018-04-08T20:47:54.921Z,100253.48
2018-04-08T20:50:22.551Z,100247.42
2018-04-08T20:52:50.148Z,100250.30
2018-04-08T20:55:17.747Z,100253.93
2018-04-08T20:57:45.386Z,100251.98
2018-04-08T21:00:13.059Z,100251.33
2018-04-08T21:02:40.650Z,100249.63
2018-04-08T21:05:08.248Z,100249.02
2018-04-08T21:07:35.948Z,100245.36
2018-04-08T21:10:03.554Z,100246.40
2018-04-08T21:12:31.174Z,100248.67
2018-04-08T21:14:58.815Z,100241.05
2018-04-08T21:17:26.471Z,100239.84
2018-04-08T21:19:54.067Z,100231.39
2018-04-08T21:22:21.667Z,100242.45
2018-04-08T21:24:49.335Z,100234.23
2018-04-08T21:27:16.943Z,100232.43
2018-04-08T21:29:44.571Z,100233.45
2018-04-08T21:32:12.227Z,100232.28
2018-04-08T21:34:39.865Z,100232.73
2018-04-08T21:37:07.459Z,100234.99
2018-04-08T21:39:35.090Z,100237.52
2018-04-08T21:42:02.711Z,100239.73
2018-04-08T21:44:30.335Z,100231.91
2018-04-08T21:46:57.936Z,100237.31
2018-04-08T21:49:25.582Z,100233.42
2018-04-08T21:51:53.279Z,100229.06
2018-04-08T21:54:20.951Z,100237.82
2018-04-08T21:56:48.550Z,100243.97
2018-04-08T21:59:16.147Z,100237.05
2018-04-08T22:01:43.751Z,100240.93
2018-04-08T22:04:11.391Z,100240.19
2018-04-08T22:06:38.978Z,100244.94
2018-04-08T22:09:06.635Z,100240.91
2018-04-08T22:11:34.280Z,100240.37
2018-04-08T22:14:01.875Z,100240.63
2018-04-08T22:16:29.466Z,100238.81
2018-04-08T22:18:57.078Z,100236.37
2018-04-08T22:21:24.762Z,100232.23
2018-04-08T22:23:52.420Z,100226.74
2018-04-08T22:26:20.006Z,100234.78
2018-04-08T22:28:47.614Z,100233.45
2018-04-08T22:31:15.211Z,100229.07
2018-04-08T22:33:42.807Z,100225.61
2018-04-08T22:36:10.435Z,100230.66
2018-04-08T22:38:38.044Z,100222.02
2018-04-08T22:41:05.643Z,100224.75
2018-04-08T22:43:33.359Z,100222.88
2018-04-08T22:46:00.955Z,100222.11
2018-04-08T22:48:28.555Z,100225.17
2018-04-08T22:50:56.194Z,100216.52
2018-04-08T22:53:23.808Z,100216.93
2018-04-08T22:55:51.412Z,100212.33
2018-04-08T22:58:19.034Z,100211.33
2018-04-08T23:00:46.619Z,100209.79
2018-04-08T23:03:14.210Z,100210.66
2018-04-08T23:05:41.846Z,100204.78
2018-04-08T23:08:09.447Z,100204.88
2018-04-08T23:10:37.070Z,100201.97
2018-04-08T23:13:04.710Z,100201.11
2018-04-08T23:15:32.307Z,100198.78
2018-04-08T23:17:59.944Z,100196.50
2018-04-08T23:20:27.550Z,100192.48
2018-04-08T23:22:55.145Z,100194.47
2018-04-08T23:25:22.743Z,100191.38
2018-04-08T23:27:50.331Z,100187.56
2018-04-08T23:30:17.924Z,100191.62
2018-04-08T23:32:47.332Z,100186.16
2018-04-08T23:35:14.965Z,100186.80
2018-04-08T23:37:42.562Z,100182.84
2018-04-08T23:40:10.203Z,100186.02
2018-04-08T23:42:37.854Z,100181.46
2018-04-08T23:45:05.471Z,100175.44
2018-04-08T23:47:33.083Z,100178.00
2018-04-08T23:50:00.775Z,100181.39
2018-04-08T23:52:28.375Z,100180.30
2018-04-08T23:54:55.963Z,100174.66
2018-04-08T23:57:23.604Z,100172.98
2018-04-08T23:59:51.192Z,100169.19
